Time;durP1;ratioP1;P1;durP2;ratioP2;P2;SDS_P1;SDS_P2;PMS_P1;PMS_P2;Temp;Humidity;BMP_temperature;BMP_pressure;BME280_temperature;BME280_humidity;BME280_pressure;Samples;Min_cycle;Max_cycle;Signal;HPM_P1;HPM_P2
2023/06/23 00:02:16;;;;;;;11.82;10.07;;;;;;;15.16;100.00;101761.88;6182664;23;20008;-76
2023/06/23 00:04:45;;;;;;;11.05;9.90;;;;;;;15.17;100.00;101766.22;6180508;23;20005;-76
2023/06/23 00:07:10;;;;;;;12.48;9.95;;;;;;;15.20;100.00;101771.28;6155209;23;20499;-76
2023/06/23 00:09:39;;;;;;;13.32;10.50;;;;;;;15.14;100.00;101772.59;6181451;23;20049;-76
2023/06/23 00:12:07;;;;;;;12.90;11.15;;;;;;;15.12;100.00;101771.03;6181460;23;20079;-76
2023/06/23 00:14:45;;;;;;;12.00;10.18;;;;;;;15.14;100.00;101771.75;6155791;23;20009;-76
2023/06/23 00:17:10;;;;;;;14.55;10.98;;;;;;;15.07;100.00;101774.06;6182151;23;20309;-76
2023/06/23 00:19:36;;;;;;;14.70;11.43;;;;;;;15.08;100.00;101781.03;6182287;23;20001;-76
2023/06/23 00:22:02;;;;;;;14.38;11.68;;;;;;;14.99;100.00;101787.91;6182989;23;20455;-76
2023/06/23 00:24:30;;;;;;;15.60;12.57;;;;;;;15.07;100.00;101794.41;6180635;23;20028;-76
2023/06/23 00:26:56;;;;;;;16.45;11.70;;;;;;;15.00;100.00;101789.59;6181750;23;20009;-76
2023/06/23 00:29:22;;;;;;;14.45;12.27;;;;;;;15.01;100.00;101785.97;6181208;23;20001;-76
2023/06/23 00:31:49;;;;;;;15.10;12.48;;;;;;;15.00;100.00;101788.75;6180202;23;20004;-77
2023/06/23 00:34:15;;;;;;;17.52;12.88;;;;;;;14.95;100.00;101796.22;6181673;23;20008;-77
2023/06/23 00:36:43;;;;;;;16.77;13.60;;;;;;;14.97;100.00;101800.44;6182440;23;20076;-76
2023/06/23 00:39:09;;;;;;;15.95;12.88;;;;;;;14.97;100.00;101805.75;6180519;23;20371;-76
2023/06/23 00:41:42;;;;;;;13.63;12.23;;;;;;;14.97;100.00;101805.75;6182868;23;20209;-76
2023/06/23 00:44:13;;;;;;;;;;;;;;;15.08;100.00;101817.31;6183802;23;20009;-76
2023/06/23 00:46:39;;;;;;;14.95;13.35;;;;;;;14.94;100.00;101800.69;6154638;23;19908;-77
2023/06/23 00:49:04;;;;;;;16.15;14.40;;;;;;;14.94;100.00;101808.63;6181739;23;20001;-76
2023/06/23 00:51:30;;;;;;;18.08;14.55;;;;;;;14.91;100.00;101816.81;6182289;23;20384;-76
2023/06/23 00:53:58;;;;;;;20.50;15.60;;;;;;;14.89;100.00;101813.44;6179831;23;20332;-76
2023/06/23 00:56:24;;;;;;;18.70;15.60;;;;;;;14.91;100.00;101826.56;6181423;23;20126;-76
2023/06/23 00:58:50;;;;;;;21.25;16.27;;;;;;;14.88;100.00;101827.66;6180716;23;20383;-76
2023/06/23 01:01:16;;;;;;;19.08;15.75;;;;;;;14.92;100.00;101838.88;6155362;23;20443;-76
2023/06/23 01:03:43;;;;;;;22.75;18.33;;;;;;;14.90;100.00;101844.28;6180302;23;20008;-76
2023/06/23 01:06:24;;;;;;;22.63;18.88;;;;;;;14.92;100.00;101844.16;6153980;23;20005;-76
2023/06/23 01:09:01;;;;;;;20.98;18.45;;;;;;;14.90;100.00;101852.22;6181569;23;20320;-76
2023/06/23 01:11:45;;;;;;;24.23;18.98;;;;;;;14.89;100.00;101866.44;6183337;23;20005;-76
2023/06/23 01:14:28;;;;;;;22.45;19.75;;;;;;;14.88;100.00;101870.06;6180789;23;20450;-76
2023/06/23 01:17:10;;;;;;;25.80;19.23;;;;;;;14.87;100.00;101865.72;6182806;23;20000;-76
2023/06/23 01:19:57;;;;;;;30.10;20.65;;;;;;;14.87;100.00;101863.06;6155650;23;20450;-76
2023/06/23 01:22:56;;;;;;;26.95;21.10;;;;;;;14.85;100.00;101856.19;6180463;23;20404;-76
2023/06/23 01:25:29;;;;;;;24.80;22.17;;;;;;;14.84;100.00;101855.34;6181378;23;20039;-76
2023/06/23 01:28:02;;;;;;;;;;;;;;;14.95;100.00;101860.66;6154610;23;20313;-76
2023/06/23 01:30:31;;;;;;;24.52;21.75;;;;;;;14.84;100.00;101855.34;6181346;23;19915;-76
2023/06/23 01:33:06;;;;;;;26.65;22.25;;;;;;;14.85;100.00;101864.97;6182466;23;20005;-76
2023/06/23 01:35:38;;;;;;;28.48;22.50;;;;;;;14.86;100.00;101865.84;6182745;23;20012;-76
2023/06/23 01:38:09;;;;;;;27.48;22.52;;;;;;;14.87;100.00;101875.47;6157069;23;20005;-76
2023/06/23 01:40:36;;;;;;;28.33;23.25;;;;;;;14.83;100.00;101872.22;6183141;23;20092;-76
2023/06/23 01:43:06;;;;;;;27.88;22.35;;;;;;;14.81;100.00;101874.13;6181950;23;20005;-76
2023/06/23 01:45:39;;;;;;;28.25;23.02;;;;;;;14.83;100.00;101872.22;6182025;23;20431;-76
2023/06/23 01:48:07;;;;;;;;;;;;;;;14.92;100.00;101878.63;6182583;23;20029;-76
2023/06/23 01:50:33;;;;;;;27.48;23.13;;;;;;;14.84;100.00;101878.34;6155066;23;19904;-76
2023/06/23 01:53:01;;;;;;;29.13;23.33;;;;;;;14.78;100.00;101879.63;6182089;23;20027;-76
2023/06/23 01:55:28;;;;;;;30.00;24.52;;;;;;;14.76;100.00;101875.41;6180953;23;20331;-76
2023/06/23 01:57:55;;;;;;;29.20;24.40;;;;;;;14.80;100.00;101876.88;6182339;23;19997;-76
2023/06/23 02:00:22;;;;;;;26.55;23.70;;;;;;;14.73;100.00;101884.44;6181872;23;20084;-76
2023/06/23 02:02:51;;;;;;;26.95;24.05;;;;;;;14.69;100.00;101886.47;6179465;23;20001;-76
2023/06/23 02:05:19;;;;;;;30.35;24.23;;;;;;;14.70;100.00;101892.63;6181739;23;20486;-76
2023/06/23 02:07:48;;;;;;;31.58;24.52;;;;;;;14.65;100.00;101900.91;6181876;23;20028;-76
2023/06/23 02:10:16;;;;;;;26.58;23.75;;;;;;;14.63;100.00;101907.28;6181241;23;20547;-76
2023/06/23 02:13:14;;;;;;;28.65;24.42;;;;;;;14.65;100.00;101895.59;6182158;23;20014;-76
2023/06/23 02:15:41;;;;;;;26.75;23.83;;;;;;;14.61;100.00;101903.91;6159589;23;20012;-76
2023/06/23 02:18:09;;;;;;;30.45;24.80;;;;;;;14.59;100.00;101919.91;6181681;23;20089;-76
2023/06/23 02:20:37;;;;;;;32.95;26.02;;;;;;;14.57;100.00;101915.69;6183170;23;20000;-76
2023/06/23 02:23:04;;;;;;;28.90;24.92;;;;;;;14.56;100.00;101922.78;6183227;23;20001;-76
2023/06/23 02:25:34;;;;;;;30.65;25.02;;;;;;;14.56;100.00;101924.59;6181641;23;20023;-76
2023/06/23 02:28:01;;;;;;;31.45;25.90;;;;;;;14.53;100.00;101924.81;6182676;23;20033;-76
2023/06/23 02:30:29;;;;;;;30.90;25.40;;;;;;;14.53;100.00;101932.75;6155125;23;20309;-76
2023/06/23 02:32:56;;;;;;;28.27;24.75;;;;;;;14.52;100.00;101920.47;6156338;23;20439;-76
2023/06/23 02:35:33;;;;;;;32.72;26.20;;;;;;;14.49;100.00;101931.28;6182552;23;20036;-76
2023/06/23 02:38:00;;;;;;;30.45;25.33;;;;;;;14.54;100.00;101950.34;6181878;23;20004;-76
2023/06/23 02:40:29;;;;;;;32.72;26.58;;;;;;;14.52;100.00;101944.31;6182112;23;20020;-76
2023/06/23 02:43:17;;;;;;;32.95;28.05;;;;;;;14.52;100.00;101952.25;6155211;23;20009;-76
2023/06/23 02:45:47;;;;;;;33.33;26.73;;;;;;;14.51;100.00;101966.44;6180410;23;20001;-75
2023/06/23 02:48:20;;;;;;;30.73;26.83;;;;;;;14.48;100.00;101961.38;6181318;23;20012;-75
2023/06/23 02:50:48;;;;;;;34.65;27.83;;;;;;;14.44;100.00;101960.75;6181512;23;20008;-75
2023/06/23 02:53:18;;;;;;;32.50;28.20;;;;;;;14.45;100.00;101957.16;6180737;23;20522;-75
2023/06/23 02:56:03;;;;;;;34.25;28.58;;;;;;;14.45;100.00;101956.31;6181349;23;20005;-75
2023/06/23 02:58:30;;;;;;;33.65;29.15;;;;;;;14.41;100.00;101963.59;6181259;23;20373;-75
2023/06/23 03:01:04;;;;;;;37.75;30.58;;;;;;;14.39;100.00;101974.28;6179413;23;20040;-74
2023/06/23 03:03:33;;;;;;;33.22;29.55;;;;;;;14.38;100.00;101975.22;6180949;23;20149;-75
2023/06/23 03:05:59;;;;;;;33.05;29.05;;;;;;;14.36;100.00;101969.19;6180163;23;20029;-75
2023/06/23 03:08:25;;;;;;;30.70;27.38;;;;;;;14.35;100.00;101971.97;6181125;23;20419;-75
2023/06/23 03:10:51;;;;;;;35.17;28.33;;;;;;;14.32;100.00;101967.72;6181162;23;20001;-75
2023/06/23 03:13:17;;;;;;;34.53;28.77;;;;;;;14.30;100.00;101969.66;6180677;23;20008;-75
2023/06/23 03:15:47;;;;;;;34.03;30.02;;;;;;;14.29;100.00;101972.41;6181854;23;20037;-75
2023/06/23 03:18:17;;;;;;;32.05;28.70;;;;;;;14.30;100.00;101976.75;6182218;23;20020;-75
2023/06/23 03:20:57;;;;;;;40.00;30.92;;;;;;;14.27;100.00;101977.81;6181301;23;20001;-75
2023/06/23 03:23:26;;;;;;;36.03;30.63;;;;;;;14.23;100.00;101984.28;6155725;23;20012;-75
2023/06/23 03:25:51;;;;;;;35.33;31.20;;;;;;;14.22;100.00;101972.00;6181823;23;20033;-75
2023/06/23 03:28:25;;;;;;;38.75;32.08;;;;;;;14.28;100.00;101982.16;6180978;23;20075;-75
2023/06/23 03:31:00;;;;;;;36.55;32.65;;;;;;;14.27;100.00;101980.47;6182315;23;20008;-76
2023/06/23 03:33:32;;;;;;;36.60;32.28;;;;;;;14.28;100.00;101979.50;6181931;23;20055;-75
2023/06/23 03:36:06;;;;;;;36.28;31.50;;;;;;;14.28;100.00;101984.78;6181412;23;20005;-76
2023/06/23 03:38:37;;;;;;;37.17;32.45;;;;;;;14.23;100.00;101989.56;6179636;23;19997;-75
2023/06/23 03:41:09;;;;;;;36.25;32.33;;;;;;;14.24;100.00;101985.97;6180220;23;20017;-76
2023/06/23 03:43:37;;;;;;;38.33;32.85;;;;;;;14.24;100.00;101983.31;6155083;23;20005;-75
2023/06/23 03:46:19;;;;;;;38.25;32.70;;;;;;;14.19;100.00;101982.81;6181252;23;20001;-76
2023/06/23 03:49:13;;;;;;;37.78;31.77;;;;;;;14.25;100.00;101982.38;6153366;23;20035;-76
2023/06/23 03:51:42;;;;;;;35.22;31.52;;;;;;;14.20;100.00;101984.50;6181294;23;20032;-75
2023/06/23 03:54:10;;;;;;;36.58;31.45;;;;;;;14.22;100.00;101985.25;6181078;23;20005;-75
2023/06/23 03:56:37;;;;;;;38.97;31.83;;;;;;;14.21;100.00;101985.34;6180374;23;20000;-75
2023/06/23 03:59:05;;;;;;;37.60;32.67;;;;;;;14.22;100.00;101987.88;6181563;23;20008;-75
2023/06/23 04:01:34;;;;;;;39.85;32.97;;;;;;;14.30;100.00;101995.28;6180917;23;20004;-75
2023/06/23 04:04:01;;;;;;;40.53;33.75;;;;;;;14.42;100.00;101997.06;6179965;23;20005;-75
2023/06/23 04:06:29;;;;;;;41.28;33.38;;;;;;;14.93;100.00;102002.22;6180693;23;20001;-75
2023/06/23 04:08:55;;;;;;;30.90;27.80;;;;;;;15.73;100.00;101997.91;6154083;23;20036;-75
2023/06/23 04:11:22;;;;;;;27.33;24.50;;;;;;;16.39;100.00;101998.84;6181547;23;20494;-76
2023/06/23 04:13:50;;;;;;;25.15;22.65;;;;;;;16.99;100.00;102008.19;6181548;23;20336;-75
2023/06/23 04:16:18;;;;;;;23.02;20.70;;;;;;;17.50;100.00;102008.28;6180882;23;20009;-75
2023/06/23 04:18:45;;;;;;;21.20;19.15;;;;;;;17.94;100.00;102009.00;6154688;23;20171;-76
2023/06/23 04:21:13;;;;;;;21.42;19.25;;;;;;;17.73;100.00;102013.53;6181620;23;20336;-75
2023/06/23 04:23:41;;;;;;;21.05;18.77;;;;;;;17.70;100.00;102019.97;6180933;23;20001;-75
2023/06/23 04:26:10;;;;;;;19.20;17.30;;;;;;;17.51;100.00;102031.28;6182068;23;20473;-75
2023/06/23 04:28:39;;;;;;;19.52;17.63;;;;;;;17.33;100.00;102031.97;6181907;23;20009;-75
2023/06/23 04:31:08;;;;;;;21.05;17.90;;;;;;;16.99;100.00;102031.28;6181012;23;20005;-75
2023/06/23 04:33:35;;;;;;;20.55;18.45;;;;;;;16.77;100.00;102021.53;6181853;23;20420;-75
2023/06/23 04:36:10;;;;;;;20.98;18.67;;;;;;;16.50;100.00;102028.09;6181441;23;20008;-75
2023/06/23 04:38:40;;;;;;;22.48;20.30;;;;;;;16.23;100.00;102036.44;6181138;23;20005;-75
2023/06/23 04:41:12;;;;;;;24.48;21.45;;;;;;;16.03;100.00;102039.81;6181477;23;20013;-75
2023/06/23 04:43:43;;;;;;;24.23;21.42;;;;;;;16.09;100.00;102041.16;6181824;23;20313;-75
2023/06/23 04:46:16;;;;;;;22.80;20.55;;;;;;;16.01;100.00;102047.06;6180552;23;20016;-75
2023/06/23 04:48:53;;;;;;;26.38;22.50;;;;;;;15.90;100.00;102047.03;6181587;23;20009;-75
2023/06/23 04:51:21;;;;;;;25.50;22.90;;;;;;;15.83;100.00;102049.31;6178922;23;20147;-75
2023/06/23 04:53:53;;;;;;;25.92;23.13;;;;;;;15.78;100.00;102043.50;6180594;23;20001;-75
2023/06/23 04:56:21;;;;;;;28.27;25.27;;;;;;;15.71;100.00;102042.28;6180807;23;20005;-75
2023/06/23 04:58:57;;;;;;;28.15;24.67;;;;;;;15.66;100.00;102042.66;6179585;23;20005;-75
2023/06/23 05:01:27;;;;;;;29.05;25.98;;;;;;;15.65;100.00;102051.56;6153997;23;20059;-75
2023/06/23 05:03:57;;;;;;;29.38;26.17;;;;;;;15.65;100.00;102056.88;6180835;23;20005;-76
2023/06/23 05:06:23;;;;;;;30.80;27.17;;;;;;;15.66;100.00;102057.72;6180460;23;20374;-77
2023/06/23 05:08:51;;;;;;;33.63;29.63;;;;;;;15.64;100.00;102063.16;6155851;23;20005;-75
2023/06/23 05:11:21;;;;;;;36.05;29.95;;;;;;;15.66;100.00;102063.88;6182399;23;20065;-75
2023/06/23 05:13:48;;;;;;;40.10;30.88;;;;;;;15.68;100.00;102071.72;6181342;23;20001;-75
2023/06/23 05:16:14;;;;;;;33.63;30.02;;;;;;;15.70;100.00;102072.44;6182771;23;20119;-75
2023/06/23 05:18:41;;;;;;;35.35;31.55;;;;;;;15.73;100.00;102071.38;6182459;23;20430;-75
2023/06/23 05:21:13;;;;;;;40.50;32.67;;;;;;;15.72;100.00;102067.03;6182138;23;20012;-75
2023/06/23 05:23:40;;;;;;;37.58;33.03;;;;;;;15.77;100.00;102075.47;6155952;23;20009;-76
2023/06/23 05:26:09;;;;;;;44.70;35.28;;;;;;;15.81;100.00;102082.25;6156829;23;20096;-76
2023/06/23 05:28:39;;;;;;;43.13;34.45;;;;;;;15.85;100.00;102083.69;6182606;23;20185;-76
2023/06/23 05:31:08;;;;;;;42.03;34.83;;;;;;;15.91;100.00;102088.53;6183212;23;20076;-75
2023/06/23 05:33:37;;;;;;;46.53;37.10;;;;;;;15.92;100.00;102088.41;6182867;23;20005;-76
2023/06/23 05:36:10;;;;;;;45.97;36.30;;;;;;;15.97;100.00;102093.38;6182998;23;20005;-76
2023/06/23 05:38:39;;;;;;;43.45;36.35;;;;;;;16.03;100.00;102098.22;6183450;23;20005;-76
2023/06/23 05:41:05;;;;;;;41.75;35.72;;;;;;;16.07;100.00;102097.03;6155792;23;20096;-76
2023/06/23 05:43:30;;;;;;;42.22;35.08;;;;;;;16.18;100.00;102101.50;6182676;23;20103;-76
2023/06/23 05:45:57;;;;;;;51.03;40.25;;;;;;;16.26;100.00;102099.94;6182939;23;20087;-76
2023/06/23 05:48:44;;;;;;;51.72;38.67;;;;;;;16.32;100.00;102108.38;6181806;23;20005;-77
2023/06/23 05:51:16;;;;;;;48.95;37.13;;;;;;;16.36;100.00;102104.50;6182740;23;20339;-78
2023/06/23 05:53:51;;;;;;;52.03;39.45;;;;;;;16.41;100.00;102112.97;6183076;23;20027;-77
2023/06/23 05:56:28;;;;;;;51.70;39.35;;;;;;;16.47;100.00;102108.03;6155432;23;20489;-77
2023/06/23 05:59:01;;;;;;;53.50;40.25;;;;;;;16.55;100.00;102107.44;6155983;23;20051;-77
2023/06/23 06:01:38;;;;;;;54.92;41.28;;;;;;;16.61;100.00;102118.41;6181372;23;20008;-77
2023/06/23 06:04:11;;;;;;;54.83;39.53;;;;;;;16.71;100.00;102121.22;6182321;23;20339;-75
2023/06/23 06:06:38;;;;;;;54.70;40.65;;;;;;;16.78;100.00;102113.59;6155959;23;20016;-76
2023/06/23 06:09:10;;;;;;;48.70;40.25;;;;;;;16.88;100.00;102122.53;6154706;23;20455;-76
2023/06/23 06:11:42;;;;;;;50.40;40.63;;;;;;;16.90;100.00;102125.94;6182501;23;20059;-76
2023/06/23 06:14:12;;;;;;;50.47;40.60;;;;;;;17.02;100.00;102126.75;6182344;23;20236;-77
2023/06/23 06:16:39;;;;;;;55.53;41.40;;;;;;;17.06;100.00;102130.84;6181371;23;20004;-77
2023/06/23 06:19:09;;;;;;;50.28;41.97;;;;;;;17.18;100.00;102133.34;6181292;23;20013;-77
2023/06/23 06:21:39;;;;;;;51.00;41.05;;;;;;;17.23;100.00;102130.34;6155798;23;20012;-77
2023/06/23 06:24:09;;;;;;;51.85;40.22;;;;;;;17.25;100.00;102123.06;6181276;23;20080;-77
2023/06/23 06:26:35;;;;;;;52.60;39.75;;;;;;;17.27;100.00;102123.78;6182678;23;20059;-77
2023/06/23 06:29:05;;;;;;;54.53;40.92;;;;;;;17.33;100.00;102125.09;6181574;23;20004;-78
2023/06/23 06:31:32;;;;;;;54.33;39.97;;;;;;;17.36;100.00;102131.00;6181394;23;20005;-78
2023/06/23 06:34:01;;;;;;;52.75;39.20;;;;;;;17.43;100.00;102134.00;6182419;23;20423;-78
2023/06/23 06:36:30;;;;;;;52.78;37.88;;;;;;;17.42;100.00;102137.63;6182523;23;20001;-78
2023/06/23 06:38:57;;;;;;;50.78;38.47;;;;;;;17.44;100.00;102136.53;6155255;23;20394;-78
2023/06/23 06:41:24;;;;;;;45.50;37.03;;;;;;;17.47;100.00;102146.94;6182338;23;20024;-78
2023/06/23 06:43:50;;;;;;;45.30;36.30;;;;;;;17.44;100.00;102147.19;6181427;23;20004;-78
2023/06/23 06:46:17;;;;;;;45.38;36.78;;;;;;;17.45;100.00;102153.34;6155798;23;20458;-77
2023/06/23 06:48:46;;;;;;;46.67;37.13;;;;;;;17.46;100.00;102161.22;6182315;23;20011;-78
2023/06/23 06:51:15;;;;;;;50.95;39.17;;;;;;;17.52;100.00;102160.69;6181467;23;20080;-78
2023/06/23 06:53:47;;;;;;;48.10;36.80;;;;;;;17.58;100.00;102167.31;6182521;23;20442;-78
2023/06/23 06:56:14;;;;;;;47.25;37.90;;;;;;;17.64;100.00;102168.66;6155805;23;20059;-78
2023/06/23 06:58:41;;;;;;;45.42;37.38;;;;;;;17.69;100.00;102158.50;6181510;23;20416;-76
2023/06/23 07:01:09;;;;;;;53.08;37.88;;;;;;;17.77;100.00;102164.03;6181758;23;20487;-77
2023/06/23 07:03:35;;;;;;;53.20;39.10;;;;;;;17.94;100.00;102168.78;6182059;23;20001;-77
2023/06/23 07:06:01;;;;;;;47.28;38.22;;;;;;;18.06;100.00;102170.44;6180266;23;20012;-77
2023/06/23 07:08:27;;;;;;;44.35;36.28;;;;;;;18.16;100.00;102173.16;6179582;23;20140;-77
2023/06/23 07:10:52;;;;;;;44.15;36.95;;;;;;;18.25;100.00;102179.50;6181368;23;20479;-77
2023/06/23 07:13:20;;;;;;;40.47;34.85;;;;;;;18.54;100.00;102180.53;6180439;23;20055;-77
2023/06/23 07:15:45;;;;;;;41.97;35.58;;;;;;;18.80;100.00;102188.94;6181253;23;20032;-78
2023/06/23 07:18:11;;;;;;;39.85;33.75;;;;;;;19.07;100.00;102188.34;6181303;23;20398;-77
2023/06/23 07:20:36;;;;;;;35.58;31.30;;;;;;;19.35;100.00;102176.91;6180945;23;20029;-77
2023/06/23 07:23:01;;;;;;;36.45;30.63;;;;;;;19.45;100.00;102181.41;6154679;23;20005;-77
2023/06/23 07:25:35;;;;;;;34.05;30.33;;;;;;;19.85;100.00;102184.00;6181260;23;20297;-76
2023/06/23 07:28:00;;;;;;;31.55;28.02;;;;;;;20.08;100.00;102187.22;6180014;23;20009;-76
2023/06/23 07:30:35;;;;;;;30.95;26.75;;;;;;;20.30;100.00;102184.22;6181121;23;20001;-76
2023/06/23 07:33:00;;;;;;;28.95;25.27;;;;;;;20.49;100.00;102189.56;6180375;23;20004;-77
2023/06/23 07:35:26;;;;;;;24.77;22.08;;;;;;;20.73;98.80;102189.03;6182079;23;20300;-77
2023/06/23 07:37:51;;;;;;;27.15;22.55;;;;;;;20.83;100.00;102189.88;6181791;23;20411;-77
2023/06/23 07:40:17;;;;;;;24.55;21.95;;;;;;;21.08;100.00;102196.34;6179124;23;20009;-76
2023/06/23 07:42:42;;;;;;;24.10;21.23;;;;;;;21.31;96.86;102194.16;6181862;23;20424;-77
2023/06/23 07:45:19;;;;;;;24.10;21.42;;;;;;;21.46;94.13;102205.19;6182071;23;20005;-77
2023/06/23 07:47:45;;;;;;;26.52;23.25;;;;;;;21.63;92.05;102196.34;6153371;23;20406;-77
2023/06/23 07:50:10;;;;;;;25.48;22.73;;;;;;;21.81;96.19;102189.13;6181926;23;20005;-77
2023/06/23 07:52:36;;;;;;;23.90;20.02;;;;;;;22.23;90.42;102195.69;6182424;23;20005;-77
2023/06/23 07:55:02;;;;;;;24.90;21.52;;;;;;;22.44;95.08;102197.03;6180875;23;20588;-77
2023/06/23 07:57:28;;;;;;;20.38;17.75;;;;;;;22.59;85.36;102208.00;6181984;23;20000;-78
2023/06/23 07:59:55;;;;;;;18.77;16.63;;;;;;;22.77;87.73;102200.69;6181642;23;20447;-78
2023/06/23 08:02:20;;;;;;;18.27;16.15;;;;;;;22.86;83.75;102206.16;6180869;23;20005;-78
2023/06/23 08:04:46;;;;;;;27.42;15.95;;;;;;;22.95;81.43;102200.66;6181658;23;20088;-78
2023/06/23 08:07:13;;;;;;;18.98;15.35;;;;;;;23.08;81.65;102206.41;6181191;23;20005;-77
2023/06/23 08:09:39;;;;;;;17.60;15.73;;;;;;;23.30;79.04;102198.78;6180159;23;20013;-78
2023/06/23 08:12:05;;;;;;;17.80;15.18;;;;;;;23.37;80.76;102199.78;6180960;23;20008;-77
2023/06/23 08:14:30;;;;;;;18.20;15.32;;;;;;;23.61;78.27;102196.34;6180765;23;20009;-77
2023/06/23 08:16:56;;;;;;;18.88;15.05;;;;;;;23.58;75.57;102202.88;6179925;23;20004;-77
2023/06/23 08:19:30;;;;;;;15.60;14.10;;;;;;;23.82;77.00;102203.94;6180630;23;20001;-77
2023/06/23 08:21:55;;;;;;;16.08;13.25;;;;;;;23.99;76.73;102194.84;6180717;23;20321;-78
2023/06/23 08:24:20;;;;;;;15.20;12.75;;;;;;;24.15;71.52;102200.22;6180091;23;20087;-78
2023/06/23 08:26:46;;;;;;;15.15;12.55;;;;;;;24.11;73.12;102203.44;6180762;23;20079;-79
2023/06/23 08:29:14;;;;;;;14.50;12.73;;;;;;;24.28;71.56;102205.94;6179883;23;20005;-78
2023/06/23 08:31:39;;;;;;;15.90;12.13;;;;;;;24.71;73.79;102205.69;6181087;23;20032;-79
2023/06/23 08:34:05;;;;;;;16.23;13.05;;;;;;;24.72;71.29;102200.13;6181036;23;20011;-79
2023/06/23 08:36:30;;;;;;;14.93;12.63;;;;;;;24.73;69.92;102201.81;6153894;23;20001;-79
2023/06/23 08:38:57;;;;;;;12.30;10.32;;;;;;;24.78;68.29;102207.50;6179144;23;20382;-80
2023/06/23 08:41:25;;;;;;;14.60;11.65;;;;;;;24.88;67.67;102213.56;6180368;23;20044;-78
2023/06/23 08:43:52;;;;;;;13.32;11.90;;;;;;;25.16;69.79;102219.34;6153641;23;20443;-79
2023/06/23 08:46:24;;;;;;;12.77;11.40;;;;;;;25.42;73.78;102220.91;6181447;23;20005;-79
2023/06/23 08:48:51;;;;;;;14.63;11.50;;;;;;;25.52;67.49;102219.66;6181207;23;20008;-79
2023/06/23 08:51:17;;;;;;;14.68;10.68;;;;;;;25.80;66.74;102222.69;6180623;23;20335;-79
2023/06/23 08:53:43;;;;;;;11.88;10.50;;;;;;;25.76;63.20;102220.53;6155445;23;20036;-79
2023/06/23 08:56:09;;;;;;;12.10;9.85;;;;;;;25.68;64.75;102223.31;6156049;23;20001;-79
2023/06/23 08:58:40;;;;;;;11.80;9.63;;;;;;;25.82;62.42;102227.91;6180945;23;20008;-79
2023/06/23 09:01:06;;;;;;;10.38;9.27;;;;;;;25.69;61.56;102230.38;6156122;23;20361;-79
2023/06/23 09:03:32;;;;;;;12.05;9.52;;;;;;;25.60;61.64;102235.75;6181522;23;20005;-80
2023/06/23 09:06:29;;;;;;;12.57;8.32;;;;;;;26.13;63.70;102231.38;6180830;23;20347;-79
2023/06/23 09:08:56;;;;;;;10.45;8.32;;;;;;;26.13;63.16;102231.38;6181645;23;20096;-79
2023/06/23 09:11:23;;;;;;;7.35;6.72;;;;;;;26.33;60.30;102233.53;6179411;23;20005;-79
2023/06/23 09:13:51;;;;;;;8.65;6.90;;;;;;;26.60;56.78;102237.53;6180923;23;20381;-78
2023/06/23 09:16:27;;;;;;;10.63;6.70;;;;;;;26.52;64.10;102246.56;6180861;23;20005;-78
2023/06/23 09:18:54;;;;;;;8.82;7.18;;;;;;;26.76;56.90;102242.75;6179821;23;20443;-78
2023/06/23 09:21:20;;;;;;;8.73;7.22;;;;;;;26.68;54.77;102240.97;6181211;23;20442;-78
2023/06/23 09:24:05;;;;;;;7.50;6.65;;;;;;;27.12;60.95;102245.56;6181046;23;20011;-78
2023/06/23 09:26:49;;;;;;;7.93;5.90;;;;;;;27.03;60.84;102244.81;6179789;23;20083;-78
2023/06/23 09:29:23;;;;;;;10.85;6.88;;;;;;;26.83;56.62;102249.94;6155665;23;20012;-79
2023/06/23 09:31:52;;;;;;;9.25;8.38;;;;;;;27.02;57.92;102258.53;6181391;23;20004;-78
2023/06/23 09:34:23;;;;;;;12.30;9.32;;;;;;;26.94;56.15;102259.44;6153411;23;20008;-78
2023/06/23 09:36:49;;;;;;;7.38;6.68;;;;;;;27.01;53.58;102256.84;6178773;23;20032;-78
2023/06/23 09:39:15;;;;;;;7.93;6.57;;;;;;;26.55;57.09;102267.78;6154199;23;20001;-79
2023/06/23 09:41:46;;;;;;;12.88;6.00;;;;;;;26.62;57.61;102263.31;6180041;23;20017;-79
2023/06/23 09:44:13;;;;;;;9.02;6.97;;;;;;;26.77;55.14;102271.44;6180530;23;20001;-79
2023/06/23 09:46:38;;;;;;;8.65;6.57;;;;;;;26.83;55.18;102268.00;6179907;23;20009;-78
2023/06/23 09:49:10;;;;;;;7.88;6.60;;;;;;;26.92;55.48;102268.75;6180988;23;20008;-79
2023/06/23 09:51:45;;;;;;;8.45;6.85;;;;;;;27.17;54.62;102267.44;6181505;23;20085;-79
2023/06/23 09:54:11;;;;;;;6.97;6.07;;;;;;;27.09;54.06;102260.28;6182781;23;20388;-80
2023/06/23 09:56:44;;;;;;;9.63;6.93;;;;;;;27.10;54.34;102267.34;6184606;23;20005;-79
2023/06/23 09:59:15;;;;;;;8.35;6.70;;;;;;;26.94;55.51;102272.09;6183695;23;20055;-79
2023/06/23 10:01:43;;;;;;;7.80;6.78;;;;;;;26.83;53.41;102260.75;6182690;23;20008;-79
2023/06/23 10:04:09;;;;;;;8.30;6.38;;;;;;;27.06;53.17;102254.41;6183155;23;20072;-77
2023/06/23 10:06:37;;;;;;;6.95;6.25;;;;;;;27.32;53.01;102253.91;6184547;23;20403;-79
2023/06/23 10:09:18;;;;;;;8.23;6.10;;;;;;;27.38;53.91;102253.16;6156275;23;20073;-79
2023/06/23 10:11:44;;;;;;;7.47;6.22;;;;;;;27.49;55.40;102252.66;6156256;23;20017;-79
2023/06/23 10:14:25;;;;;;;7.60;6.38;;;;;;;27.76;53.62;102261.94;6158145;23;20009;-80
2023/06/23 10:16:57;;;;;;;8.43;6.40;;;;;;;27.22;52.86;102254.22;6183050;23;20001;-80
2023/06/23 10:19:23;;;;;;;7.78;6.13;;;;;;;27.28;52.99;102258.03;6156950;23;20016;-81
2023/06/23 10:21:49;;;;;;;6.95;6.00;;;;;;;27.25;52.86;102253.00;6182108;23;20005;-81
2023/06/23 10:24:18;;;;;;;9.40;5.63;;;;;;;27.66;52.75;102256.00;6183081;23;20005;-80
2023/06/23 10:26:45;;;;;;;9.23;6.15;;;;;;;27.64;50.59;102264.31;6183320;23;20092;-81
2023/06/23 10:29:17;;;;;;;8.65;5.65;;;;;;;27.54;58.26;102268.31;6182584;23;20005;-80
2023/06/23 10:31:57;;;;;;;14.07;5.80;;;;;;;27.78;54.67;102270.69;6184043;23;20088;-81
2023/06/23 10:34:27;;;;;;;10.43;5.40;;;;;;;27.78;50.61;102260.72;6182098;23;20073;-81
2023/06/23 10:36:56;;;;;;;10.57;5.80;;;;;;;27.92;49.12;102260.84;6181242;23;20083;-82
2023/06/23 10:39:26;;;;;;;6.57;5.82;;;;;;;28.03;48.59;102263.88;6182359;23;20011;-81
2023/06/23 10:41:53;;;;;;;11.23;6.28;;;;;;;28.14;52.08;102258.97;6181758;23;20009;-80
2023/06/23 10:44:25;;;;;;;6.55;5.57;;;;;;;28.14;49.40;102264.38;6182289;23;20015;-80
2023/06/23 10:46:52;;;;;;;8.93;6.28;;;;;;;27.74;49.58;102275.66;6181433;23;20008;-81
2023/06/23 10:49:24;;;;;;;9.15;5.90;;;;;;;27.30;55.74;102273.03;6181932;23;20005;-80
2023/06/23 10:51:49;;;;;;;5.77;4.93;;;;;;;27.58;50.90;102272.31;6180836;23;20001;-80
2023/06/23 10:54:26;;;;;;;7.88;4.90;;;;;;;27.96;51.20;102273.78;6155400;23;20005;-80
2023/06/23 10:56:55;;;;;;;6.68;4.13;;;;;;;28.17;48.05;102258.56;6180510;23;20040;-80
2023/06/23 10:59:23;;;;;;;7.90;5.75;;;;;;;28.04;45.41;102265.56;6182283;23;20004;-82
2023/06/23 11:02:02;;;;;;;5.90;5.30;;;;;;;28.44;51.35;102265.91;6182485;23;20004;-82
2023/06/23 11:04:33;;;;;;;5.95;4.28;;;;;;;28.64;48.37;102266.88;6182117;23;20009;-80
2023/06/23 11:07:02;;;;;;;5.18;4.28;;;;;;;28.74;46.90;102268.41;6182590;23;20023;-82
2023/06/23 11:10:02;;;;;;;6.25;5.05;;;;;;;28.80;48.34;102270.31;6182551;23;20337;-82
2023/06/23 11:12:33;;;;;;;5.88;5.10;;;;;;;28.54;47.96;102271.81;6175397;23;20015;-81
2023/06/23 11:15:09;;;;;;;8.60;5.72;;;;;;;28.70;47.19;102274.22;6183660;23;20029;-79
2023/06/23 11:18:11;;;;;;;8.55;5.30;;;;;;;28.71;51.21;102272.34;6181030;23;20032;-80
2023/06/23 11:20:43;;;;;;;5.43;4.93;;;;;;;28.45;47.23;102278.44;6182468;23;20383;-80
2023/06/23 11:23:12;;;;;;;;;;;;;;;28.89;47.17;102274.59;6183216;23;20005;-80